sensor_id;sensor_type;location;lat;lon;timestamp;temperature;humidity
71039;SHT30;58692;43.212;27.908;2023-05-10T00:01:25;9.92;81.12
71039;SHT30;58692;43.212;27.908;2023-05-10T00:03:50;9.88;81.55
71039;SHT30;58692;43.212;27.908;2023-05-10T00:06:16;9.92;81.38
71039;SHT30;58692;43.212;27.908;2023-05-10T00:08:41;9.87;81.54
71039;SHT30;58692;43.212;27.908;2023-05-10T00:11:07;9.85;81.55
71039;SHT30;58692;43.212;27.908;2023-05-10T00:13:33;9.84;81.96
71039;SHT30;58692;43.212;27.908;2023-05-10T00:15:58;9.82;82.29
71039;SHT30;58692;43.212;27.908;2023-05-10T00:18:24;9.80;82.41
71039;SHT30;58692;43.212;27.908;2023-05-10T00:20:49;9.80;82.51
71039;SHT30;58692;43.212;27.908;2023-05-10T00:23:15;9.82;82.40
71039;SHT30;58692;43.212;27.908;2023-05-10T00:25:40;9.88;82.24
71039;SHT30;58692;43.212;27.908;2023-05-10T00:28:06;9.84;82.48
71039;SHT30;58692;43.212;27.908;2023-05-10T00:30:31;9.61;83.41
71039;SHT30;58692;43.212;27.908;2023-05-10T00:32:56;9.70;83.28
71039;SHT30;58692;43.212;27.908;2023-05-10T00:35:22;9.62;83.48
71039;SHT30;58692;43.212;27.908;2023-05-10T00:37:48;9.48;82.99
71039;SHT30;58692;43.212;27.908;2023-05-10T00:40:13;9.23;83.35
71039;SHT30;58692;43.212;27.908;2023-05-10T00:42:39;9.33;83.19
71039;SHT30;58692;43.212;27.908;2023-05-10T00:45:05;9.52;82.87
71039;SHT30;58692;43.212;27.908;2023-05-10T00:47:32;9.51;82.97
71039;SHT30;58692;43.212;27.908;2023-05-10T00:49:58;9.55;82.96
71039;SHT30;58692;43.212;27.908;2023-05-10T00:52:26;9.62;82.74
71039;SHT30;58692;43.212;27.908;2023-05-10T00:54:52;9.58;82.82
71039;SHT30;58692;43.212;27.908;2023-05-10T00:57:18;9.58;82.94
71039;SHT30;58692;43.212;27.908;2023-05-10T00:59:44;9.65;82.64
71039;SHT30;58692;43.212;27.908;2023-05-10T01:02:09;9.71;82.66
71039;SHT30;58692;43.212;27.908;2023-05-10T01:04:35;9.80;82.32
71039;SHT30;58692;43.212;27.908;2023-05-10T01:07:01;9.87;82.13
71039;SHT30;58692;43.212;27.908;2023-05-10T01:09:27;9.91;81.89
71039;SHT30;58692;43.212;27.908;2023-05-10T01:11:53;9.95;81.38
71039;SHT30;58692;43.212;27.908;2023-05-10T01:14:20;9.97;81.36
71039;SHT30;58692;43.212;27.908;2023-05-10T01:16:48;9.99;81.26
71039;SHT30;58692;43.212;27.908;2023-05-10T01:19:29;9.67;82.19
71039;SHT30;58692;43.212;27.908;2023-05-10T01:24:54;9.55;82.88
71039;SHT30;58692;43.212;27.908;2023-05-10T01:35:23;9.55;82.96
71039;SHT30;58692;43.212;27.908;2023-05-10T01:38:04;9.62;82.77
71039;SHT30;58692;43.212;27.908;2023-05-10T01:40:39;9.68;82.61
71039;SHT30;58692;43.212;27.908;2023-05-10T01:43:13;9.70;82.28
71039;SHT30;58692;43.212;27.908;2023-05-10T01:45:50;9.73;81.96
71039;SHT30;58692;43.212;27.908;2023-05-10T01:48:20;9.74;81.83
71039;SHT30;58692;43.212;27.908;2023-05-10T01:50:46;9.77;81.82
71039;SHT30;58692;43.212;27.908;2023-05-10T01:53:13;9.75;81.96
71039;SHT30;58692;43.212;27.908;2023-05-10T01:55:46;9.75;82.02
71039;SHT30;58692;43.212;27.908;2023-05-10T01:58:15;9.71;82.46
71039;SHT30;58692;43.212;27.908;2023-05-10T02:00:43;9.47;83.44
71039;SHT30;58692;43.212;27.908;2023-05-10T02:03:10;9.54;83.11
71039;SHT30;58692;43.212;27.908;2023-05-10T02:05:37;9.58;82.99
71039;SHT30;58692;43.212;27.908;2023-05-10T02:08:06;9.62;82.85
71039;SHT30;58692;43.212;27.908;2023-05-10T02:10:34;9.52;83.43
71039;SHT30;58692;43.212;27.908;2023-05-10T02:13:00;9.58;83.12
71039;SHT30;58692;43.212;27.908;2023-05-10T02:15:27;9.48;83.47
71039;SHT30;58692;43.212;27.908;2023-05-10T02:17:55;9.51;83.33
71039;SHT30;58692;43.212;27.908;2023-05-10T02:20:23;9.47;83.31
71039;SHT30;58692;43.212;27.908;2023-05-10T02:22:51;9.51;83.37
71039;SHT30;58692;43.212;27.908;2023-05-10T02:25:19;9.50;83.16
71039;SHT30;58692;43.212;27.908;2023-05-10T02:27:46;9.47;83.22
71039;SHT30;58692;43.212;27.908;2023-05-10T02:30:13;9.46;83.15
71039;SHT30;58692;43.212;27.908;2023-05-10T02:32:39;9.50;83.15
71039;SHT30;58692;43.212;27.908;2023-05-10T02:35:06;9.43;83.29
71039;SHT30;58692;43.212;27.908;2023-05-10T02:37:33;9.50;83.16
71039;SHT30;58692;43.212;27.908;2023-05-10T02:40:00;9.43;83.02
71039;SHT30;58692;43.212;27.908;2023-05-10T02:42:29;9.36;82.96
71039;SHT30;58692;43.212;27.908;2023-05-10T02:45:00;9.29;83.10
71039;SHT30;58692;43.212;27.908;2023-05-10T02:47:27;9.39;82.94
71039;SHT30;58692;43.212;27.908;2023-05-10T02:49:53;9.37;82.69
71039;SHT30;58692;43.212;27.908;2023-05-10T02:52:23;9.44;82.50
71039;SHT30;58692;43.212;27.908;2023-05-10T02:54:52;9.46;82.42
71039;SHT30;58692;43.212;27.908;2023-05-10T02:57:26;9.50;82.33
71039;SHT30;58692;43.212;27.908;2023-05-10T02:59:51;9.48;82.56
71039;SHT30;58692;43.212;27.908;2023-05-10T03:02:17;9.40;82.61
71039;SHT30;58692;43.212;27.908;2023-05-10T03:04:42;9.40;82.80
71039;SHT30;58692;43.212;27.908;2023-05-10T03:07:08;9.44;82.84
71039;SHT30;58692;43.212;27.908;2023-05-10T03:09:34;9.48;82.29
71039;SHT30;58692;43.212;27.908;2023-05-10T03:12:07;9.50;82.12
71039;SHT30;58692;43.212;27.908;2023-05-10T03:17:35;9.48;82.24
71039;SHT30;58692;43.212;27.908;2023-05-10T03:20:09;9.50;82.13
71039;SHT30;58692;43.212;27.908;2023-05-10T03:23:11;9.57;81.93
71039;SHT30;58692;43.212;27.908;2023-05-10T03:25:43;9.55;82.19
71039;SHT30;58692;43.212;27.908;2023-05-10T03:28:09;9.64;82.17
71039;SHT30;58692;43.212;27.908;2023-05-10T03:30:44;9.68;81.95
71039;SHT30;58692;43.212;27.908;2023-05-10T03:33:18;9.75;81.91
71039;SHT30;58692;43.212;27.908;2023-05-10T03:36:08;9.80;81.64
71039;SHT30;58692;43.212;27.908;2023-05-10T03:38:33;9.85;81.63
71039;SHT30;58692;43.212;27.908;2023-05-10T03:40:59;9.92;81.42
71039;SHT30;58692;43.212;27.908;2023-05-10T03:43:24;10.08;81.12
71039;SHT30;58692;43.212;27.908;2023-05-10T03:45:50;10.33;80.23
71039;SHT30;58692;43.212;27.908;2023-05-10T03:48:15;10.56;79.69
71039;SHT30;58692;43.212;27.908;2023-05-10T03:50:41;10.80;78.70
71039;SHT30;58692;43.212;27.908;2023-05-10T03:53:06;10.94;78.20
71039;SHT30;58692;43.212;27.908;2023-05-10T03:55:32;11.26;77.16
71039;SHT30;58692;43.212;27.908;2023-05-10T03:57:59;11.37;76.68
71039;SHT30;58692;43.212;27.908;2023-05-10T04:00:25;11.48;76.39
71039;SHT30;58692;43.212;27.908;2023-05-10T04:02:50;11.61;76.28
71039;SHT30;58692;43.212;27.908;2023-05-10T04:05:16;11.82;75.48
71039;SHT30;58692;43.212;27.908;2023-05-10T04:07:41;12.02;74.90
71039;SHT30;58692;43.212;27.908;2023-05-10T04:10:07;12.26;74.13
71039;SHT30;58692;43.212;27.908;2023-05-10T04:12:33;12.49;73.76
71039;SHT30;58692;43.212;27.908;2023-05-10T04:14:58;12.87;72.75
71039;SHT30;58692;43.212;27.908;2023-05-10T04:17:23;12.98;72.06
71039;SHT30;58692;43.212;27.908;2023-05-10T04:19:49;12.87;72.52
71039;SHT30;58692;43.212;27.908;2023-05-10T04:22:15;13.11;72.20
71039;SHT30;58692;43.212;27.908;2023-05-10T04:24:41;13.24;71.71
71039;SHT30;58692;43.212;27.908;2023-05-10T04:27:08;13.31;71.66
71039;SHT30;58692;43.212;27.908;2023-05-10T04:29:35;13.66;70.88
71039;SHT30;58692;43.212;27.908;2023-05-10T04:32:00;13.96;69.91
71039;SHT30;58692;43.212;27.908;2023-05-10T04:34:25;14.09;69.28
71039;SHT30;58692;43.212;27.908;2023-05-10T04:36:51;14.23;69.12
71039;SHT30;58692;43.212;27.908;2023-05-10T04:39:22;14.42;68.32
71039;SHT30;58692;43.212;27.908;2023-05-10T04:41:54;14.75;67.62
71039;SHT30;58692;43.212;27.908;2023-05-10T04:44:19;14.91;67.00
71039;SHT30;58692;43.212;27.908;2023-05-10T04:46:45;15.01;66.87
71039;SHT30;58692;43.212;27.908;2023-05-10T04:49:10;15.47;65.75
71039;SHT30;58692;43.212;27.908;2023-05-10T04:51:36;15.77;64.50
71039;SHT30;58692;43.212;27.908;2023-05-10T04:54:02;15.83;64.04
71039;SHT30;58692;43.212;27.908;2023-05-10T04:56:27;16.01;63.66
71039;SHT30;58692;43.212;27.908;2023-05-10T04:58:53;16.37;62.59
71039;SHT30;58692;43.212;27.908;2023-05-10T05:01:18;16.29;62.91
71039;SHT30;58692;43.212;27.908;2023-05-10T05:03:47;16.35;62.96
71039;SHT30;58692;43.212;27.908;2023-05-10T05:06:12;16.24;62.89
71039;SHT30;58692;43.212;27.908;2023-05-10T05:08:38;15.52;63.53
71039;SHT30;58692;43.212;27.908;2023-05-10T05:11:03;15.18;65.00
71039;SHT30;58692;43.212;27.908;2023-05-10T05:13:50;14.52;66.32
71039;SHT30;58692;43.212;27.908;2023-05-10T05:16:16;15.03;65.39
71039;SHT30;58692;43.212;27.908;2023-05-10T05:18:41;15.11;64.46
71039;SHT30;58692;43.212;27.908;2023-05-10T05:21:16;14.14;66.83
71039;SHT30;58692;43.212;27.908;2023-05-10T05:23:42;14.96;64.71
71039;SHT30;58692;43.212;27.908;2023-05-10T05:26:11;14.45;66.15
71039;SHT30;58692;43.212;27.908;2023-05-10T05:28:36;15.16;64.67
71039;SHT30;58692;43.212;27.908;2023-05-10T05:31:04;14.31;66.74
71039;SHT30;58692;43.212;27.908;2023-05-10T05:33:30;14.45;66.56
71039;SHT30;58692;43.212;27.908;2023-05-10T05:35:56;14.65;66.41
71039;SHT30;58692;43.212;27.908;2023-05-10T05:38:22;15.02;65.47
71039;SHT30;58692;43.212;27.908;2023-05-10T05:40:47;15.50;64.21
71039;SHT30;58692;43.212;27.908;2023-05-10T05:43:13;14.38;67.26
71039;SHT30;58692;43.212;27.908;2023-05-10T05:45:38;15.22;65.25
71039;SHT30;58692;43.212;27.908;2023-05-10T05:48:04;15.32;65.31
71039;SHT30;58692;43.212;27.908;2023-05-10T05:50:30;15.53;64.08
71039;SHT30;58692;43.212;27.908;2023-05-10T05:52:55;14.95;65.01
71039;SHT30;58692;43.212;27.908;2023-05-10T05:55:22;15.16;64.32
71039;SHT30;58692;43.212;27.908;2023-05-10T05:57:53;15.52;63.15
71039;SHT30;58692;43.212;27.908;2023-05-10T06:00:19;15.26;63.24
71039;SHT30;58692;43.212;27.908;2023-05-10T06:02:47;15.05;64.16
71039;SHT30;58692;43.212;27.908;2023-05-10T06:05:15;15.32;63.90
71039;SHT30;58692;43.212;27.908;2023-05-10T06:07:41;15.22;63.20
71039;SHT30;58692;43.212;27.908;2023-05-10T06:10:08;15.64;62.72
71039;SHT30;58692;43.212;27.908;2023-05-10T06:12:34;15.29;63.04
71039;SHT30;58692;43.212;27.908;2023-05-10T06:15:00;15.02;64.54
71039;SHT30;58692;43.212;27.908;2023-05-10T06:17:25;15.05;64.37
71039;SHT30;58692;43.212;27.908;2023-05-10T06:19:51;15.63;63.30
71039;SHT30;58692;43.212;27.908;2023-05-10T06:22:17;15.62;63.32
71039;SHT30;58692;43.212;27.908;2023-05-10T06:24:42;15.36;64.53
71039;SHT30;58692;43.212;27.908;2023-05-10T06:27:08;15.87;63.58
71039;SHT30;58692;43.212;27.908;2023-05-10T06:29:34;16.35;61.01
71039;SHT30;58692;43.212;27.908;2023-05-10T06:32:08;16.48;59.95
71039;SHT30;58692;43.212;27.908;2023-05-10T06:34:34;16.68;58.73
71039;SHT30;58692;43.212;27.908;2023-05-10T06:37:00;17.43;57.84
71039;SHT30;58692;43.212;27.908;2023-05-10T06:39:29;17.26;58.31
71039;SHT30;58692;43.212;27.908;2023-05-10T06:41:57;16.00;60.34
71039;SHT30;58692;43.212;27.908;2023-05-10T06:44:24;16.86;59.21
71039;SHT30;58692;43.212;27.908;2023-05-10T06:46:52;16.76;59.47
71039;SHT30;58692;43.212;27.908;2023-05-10T06:49:21;16.49;59.11
71039;SHT30;58692;43.212;27.908;2023-05-10T06:51:46;16.27;60.72
71039;SHT30;58692;43.212;27.908;2023-05-10T06:54:12;16.34;60.53
71039;SHT30;58692;43.212;27.908;2023-05-10T06:56:37;17.22;59.29
71039;SHT30;58692;43.212;27.908;2023-05-10T06:59:03;17.10;57.14
71039;SHT30;58692;43.212;27.908;2023-05-10T07:01:28;16.20;60.11
71039;SHT30;58692;43.212;27.908;2023-05-10T07:03:54;15.91;59.57
71039;SHT30;58692;43.212;27.908;2023-05-10T07:06:19;15.87;60.89
71039;SHT30;58692;43.212;27.908;2023-05-10T07:08:45;15.42;62.74
71039;SHT30;58692;43.212;27.908;2023-05-10T07:11:10;16.34;60.76
71039;SHT30;58692;43.212;27.908;2023-05-10T07:13:36;15.64;61.90
71039;SHT30;58692;43.212;27.908;2023-05-10T07:16:03;15.54;62.51
71039;SHT30;58692;43.212;27.908;2023-05-10T07:18:29;16.32;59.84
71039;SHT30;58692;43.212;27.908;2023-05-10T07:20:54;16.18;60.82
71039;SHT30;58692;43.212;27.908;2023-05-10T07:23:30;15.97;62.57
71039;SHT30;58692;43.212;27.908;2023-05-10T07:25:55;16.11;61.70
71039;SHT30;58692;43.212;27.908;2023-05-10T07:28:25;16.71;60.55
71039;SHT30;58692;43.212;27.908;2023-05-10T07:30:53;16.79;59.17
71039;SHT30;58692;43.212;27.908;2023-05-10T07:33:19;16.51;60.03
71039;SHT30;58692;43.212;27.908;2023-05-10T07:35:44;15.76;63.32
71039;SHT30;58692;43.212;27.908;2023-05-10T07:38:10;15.13;66.04
71039;SHT30;58692;43.212;27.908;2023-05-10T07:40:37;15.15;66.43
71039;SHT30;58692;43.212;27.908;2023-05-10T07:43:03;15.57;65.25
71039;SHT30;58692;43.212;27.908;2023-05-10T07:45:29;15.16;65.55
71039;SHT30;58692;43.212;27.908;2023-05-10T07:47:54;14.75;67.59
71039;SHT30;58692;43.212;27.908;2023-05-10T07:50:20;14.77;67.09
71039;SHT30;58692;43.212;27.908;2023-05-10T07:52:47;15.11;66.15
71039;SHT30;58692;43.212;27.908;2023-05-10T07:55:15;14.87;67.21
71039;SHT30;58692;43.212;27.908;2023-05-10T07:57:48;14.87;67.85
71039;SHT30;58692;43.212;27.908;2023-05-10T08:00:31;14.47;69.29
71039;SHT30;58692;43.212;27.908;2023-05-10T08:02:56;15.23;67.72
71039;SHT30;58692;43.212;27.908;2023-05-10T08:05:22;16.11;65.00
71039;SHT30;58692;43.212;27.908;2023-05-10T08:07:48;17.03;62.44
71039;SHT30;58692;43.212;27.908;2023-05-10T08:10:13;16.92;62.84
71039;SHT30;58692;43.212;27.908;2023-05-10T08:12:39;15.96;63.34
71039;SHT30;58692;43.212;27.908;2023-05-10T08:15:05;16.28;61.08
71039;SHT30;58692;43.212;27.908;2023-05-10T08:17:31;16.03;62.36
71039;SHT30;58692;43.212;27.908;2023-05-10T08:19:57;16.61;63.05
71039;SHT30;58692;43.212;27.908;2023-05-10T08:22:23;17.23;62.08
71039;SHT30;58692;43.212;27.908;2023-05-10T08:24:48;15.91;64.55
71039;SHT30;58692;43.212;27.908;2023-05-10T08:27:14;15.83;66.25
71039;SHT30;58692;43.212;27.908;2023-05-10T08:29:39;16.07;65.37
71039;SHT30;58692;43.212;27.908;2023-05-10T08:32:05;16.85;62.36
71039;SHT30;58692;43.212;27.908;2023-05-10T08:34:31;16.59;63.42
71039;SHT30;58692;43.212;27.908;2023-05-10T08:36:56;16.40;65.20
71039;SHT30;58692;43.212;27.908;2023-05-10T08:39:22;16.66;63.76
71039;SHT30;58692;43.212;27.908;2023-05-10T08:41:50;15.64;68.01
71039;SHT30;58692;43.212;27.908;2023-05-10T08:44:22;16.85;64.85
71039;SHT30;58692;43.212;27.908;2023-05-10T08:46:49;17.63;62.03
71039;SHT30;58692;43.212;27.908;2023-05-10T08:49:20;17.51;62.30
71039;SHT30;58692;43.212;27.908;2023-05-10T08:51:50;17.50;60.85
71039;SHT30;58692;43.212;27.908;2023-05-10T08:54:17;17.88;59.49
71039;SHT30;58692;43.212;27.908;2023-05-10T08:56:43;18.04;60.30
71039;SHT30;58692;43.212;27.908;2023-05-10T09:01:57;17.66;60.44
71039;SHT30;58692;43.212;27.908;2023-05-10T09:04:23;18.04;60.13
71039;SHT30;58692;43.212;27.908;2023-05-10T09:06:48;18.67;59.16
71039;SHT30;58692;43.212;27.908;2023-05-10T09:09:18;18.01;60.30
71039;SHT30;58692;43.212;27.908;2023-05-10T09:11:45;17.05;62.10
71039;SHT30;58692;43.212;27.908;2023-05-10T09:14:11;17.70;60.44
71039;SHT30;58692;43.212;27.908;2023-05-10T09:16:37;16.82;63.74
71039;SHT30;58692;43.212;27.908;2023-05-10T09:19:03;18.04;60.24
71039;SHT30;58692;43.212;27.908;2023-05-10T09:21:30;16.92;62.20
71039;SHT30;58692;43.212;27.908;2023-05-10T09:23:56;17.30;61.70
71039;SHT30;58692;43.212;27.908;2023-05-10T09:26:23;17.67;60.09
71039;SHT30;58692;43.212;27.908;2023-05-10T09:28:57;18.38;59.08
71039;SHT30;58692;43.212;27.908;2023-05-10T09:31:23;17.92;59.93
71039;SHT30;58692;43.212;27.908;2023-05-10T09:33:50;17.61;59.01
71039;SHT30;58692;43.212;27.908;2023-05-10T09:36:16;16.83;61.23
71039;SHT30;58692;43.212;27.908;2023-05-10T09:38:51;17.41;58.25
71039;SHT30;58692;43.212;27.908;2023-05-10T09:41:20;17.71;57.76
71039;SHT30;58692;43.212;27.908;2023-05-10T09:43:47;17.80;58.05
71039;SHT30;58692;43.212;27.908;2023-05-10T09:46:14;18.15;57.41
71039;SHT30;58692;43.212;27.908;2023-05-10T09:48:43;17.60;57.68
71039;SHT30;58692;43.212;27.908;2023-05-10T09:51:10;18.52;54.80
71039;SHT30;58692;43.212;27.908;2023-05-10T09:53:36;18.72;54.53
71039;SHT30;58692;43.212;27.908;2023-05-10T09:56:02;19.04;53.24
71039;SHT30;58692;43.212;27.908;2023-05-10T09:58:30;18.15;54.28
71039;SHT30;58692;43.212;27.908;2023-05-10T10:00:59;18.38;54.03
71039;SHT30;58692;43.212;27.908;2023-05-10T10:03:24;17.80;56.23
71039;SHT30;58692;43.212;27.908;2023-05-10T10:05:50;18.08;55.68
71039;SHT30;58692;43.212;27.908;2023-05-10T10:08:17;17.59;57.97
71039;SHT30;58692;43.212;27.908;2023-05-10T10:10:43;17.46;57.69
71039;SHT30;58692;43.212;27.908;2023-05-10T10:13:28;17.97;56.97
71039;SHT30;58692;43.212;27.908;2023-05-10T10:15:57;18.02;56.99
71039;SHT30;58692;43.212;27.908;2023-05-10T10:18:22;17.10;58.32
71039;SHT30;58692;43.212;27.908;2023-05-10T10:20:54;18.24;55.96
71039;SHT30;58692;43.212;27.908;2023-05-10T10:23:20;17.95;54.60
71039;SHT30;58692;43.212;27.908;2023-05-10T10:25:46;17.81;55.14
71039;SHT30;58692;43.212;27.908;2023-05-10T10:30:42;18.49;52.98
71039;SHT30;58692;43.212;27.908;2023-05-10T10:36:00;16.56;58.56
71039;SHT30;58692;43.212;27.908;2023-05-10T10:46:20;17.44;56.69
71039;SHT30;58692;43.212;27.908;2023-05-10T10:49:17;17.94;55.94
71039;SHT30;58692;43.212;27.908;2023-05-10T10:55:21;17.07;57.66
71039;SHT30;58692;43.212;27.908;2023-05-10T10:58:48;16.66;58.67
71039;SHT30;58692;43.212;27.908;2023-05-10T11:01:33;15.84;60.68
71039;SHT30;58692;43.212;27.908;2023-05-10T11:10:27;18.22;54.67
71039;SHT30;58692;43.212;27.908;2023-05-10T11:15:19;18.45;55.10
71039;SHT30;58692;43.212;27.908;2023-05-10T11:17:47;18.80;52.51
71039;SHT30;58692;43.212;27.908;2023-05-10T11:20:20;17.85;55.80
71039;SHT30;58692;43.212;27.908;2023-05-10T11:22:54;18.31;54.30
71039;SHT30;58692;43.212;27.908;2023-05-10T11:25:31;17.20;56.66
71039;SHT30;58692;43.212;27.908;2023-05-10T11:28:05;17.75;56.83
71039;SHT30;58692;43.212;27.908;2023-05-10T11:30:31;18.12;55.84
71039;SHT30;58692;43.212;27.908;2023-05-10T11:32:56;18.04;56.53
71039;SHT30;58692;43.212;27.908;2023-05-10T11:35:22;18.16;55.29
71039;SHT30;58692;43.212;27.908;2023-05-10T11:37:48;18.70;53.65
71039;SHT30;58692;43.212;27.908;2023-05-10T11:40:14;17.95;53.74
71039;SHT30;58692;43.212;27.908;2023-05-10T11:42:39;17.85;55.07
71039;SHT30;58692;43.212;27.908;2023-05-10T11:45:05;17.63;56.59
71039;SHT30;58692;43.212;27.908;2023-05-10T11:47:31;17.94;56.25
71039;SHT30;58692;43.212;27.908;2023-05-10T11:50:00;18.08;55.37
71039;SHT30;58692;43.212;27.908;2023-05-10T11:52:35;17.70;56.35
71039;SHT30;58692;43.212;27.908;2023-05-10T11:55:02;17.66;56.50
71039;SHT30;58692;43.212;27.908;2023-05-10T11:57:28;18.12;55.02
71039;SHT30;58692;43.212;27.908;2023-05-10T11:59:55;17.81;55.61
71039;SHT30;58692;43.212;27.908;2023-05-10T12:02:21;17.44;56.65
71039;SHT30;58692;43.212;27.908;2023-05-10T12:04:47;16.82;56.92
71039;SHT30;58692;43.212;27.908;2023-05-10T12:07:13;16.88;57.77
71039;SHT30;58692;43.212;27.908;2023-05-10T12:09:43;16.51;58.66
71039;SHT30;58692;43.212;27.908;2023-05-10T12:12:10;16.73;58.75
71039;SHT30;58692;43.212;27.908;2023-05-10T12:14:40;16.44;59.24
71039;SHT30;58692;43.212;27.908;2023-05-10T12:17:06;16.01;60.61
71039;SHT30;58692;43.212;27.908;2023-05-10T12:19:39;15.43;61.35
71039;SHT30;58692;43.212;27.908;2023-05-10T12:22:05;15.43;61.90
71039;SHT30;58692;43.212;27.908;2023-05-10T12:24:34;15.36;62.37
71039;SHT30;58692;43.212;27.908;2023-05-10T12:27:04;15.29;62.65
71039;SHT30;58692;43.212;27.908;2023-05-10T12:29:30;14.89;63.84
71039;SHT30;58692;43.212;27.908;2023-05-10T12:31:58;14.77;64.41
71039;SHT30;58692;43.212;27.908;2023-05-10T12:34:29;14.54;64.87
71039;SHT30;58692;43.212;27.908;2023-05-10T12:36:55;14.65;65.30
71039;SHT30;58692;43.212;27.908;2023-05-10T12:39:21;14.57;63.92
71039;SHT30;58692;43.212;27.908;2023-05-10T12:41:46;14.51;64.67
71039;SHT30;58692;43.212;27.908;2023-05-10T12:44:12;14.47;64.49
71039;SHT30;58692;43.212;27.908;2023-05-10T12:46:37;14.65;63.55
71039;SHT30;58692;43.212;27.908;2023-05-10T12:49:03;14.47;65.13
71039;SHT30;58692;43.212;27.908;2023-05-10T12:51:28;14.51;63.58
71039;SHT30;58692;43.212;27.908;2023-05-10T12:53:54;14.45;63.65
71039;SHT30;58692;43.212;27.908;2023-05-10T12:56:20;14.47;63.74
71039;SHT30;58692;43.212;27.908;2023-05-10T12:58:46;14.37;64.88
71039;SHT30;58692;43.212;27.908;2023-05-10T13:01:13;14.41;64.44
71039;SHT30;58692;43.212;27.908;2023-05-10T13:03:39;14.41;64.06
71039;SHT30;58692;43.212;27.908;2023-05-10T13:06:05;14.63;63.33
71039;SHT30;58692;43.212;27.908;2023-05-10T13:08:32;14.64;63.06
71039;SHT30;58692;43.212;27.908;2023-05-10T13:11:00;14.42;63.60
71039;SHT30;58692;43.212;27.908;2023-05-10T13:13:50;14.06;64.92
71039;SHT30;58692;43.212;27.908;2023-05-10T13:16:20;14.03;66.15
71039;SHT30;58692;43.212;27.908;2023-05-10T13:18:45;14.06;66.38
71039;SHT30;58692;43.212;27.908;2023-05-10T13:21:11;14.16;66.46
71039;SHT30;58692;43.212;27.908;2023-05-10T13:23:40;14.20;66.33
71039;SHT30;58692;43.212;27.908;2023-05-10T13:26:05;13.95;67.07
71039;SHT30;58692;43.212;27.908;2023-05-10T13:28:31;13.90;67.71
71039;SHT30;58692;43.212;27.908;2023-05-10T13:30:56;13.89;67.06
71039;SHT30;58692;43.212;27.908;2023-05-10T13:33:22;14.05;66.49
71039;SHT30;58692;43.212;27.908;2023-05-10T13:35:53;14.17;66.45
71039;SHT30;58692;43.212;27.908;2023-05-10T13:38:18;14.10;65.96
71039;SHT30;58692;43.212;27.908;2023-05-10T13:40:44;14.12;66.38
71039;SHT30;58692;43.212;27.908;2023-05-10T13:43:10;14.05;65.87
71039;SHT30;58692;43.212;27.908;2023-05-10T13:45:36;14.00;66.47
71039;SHT30;58692;43.212;27.908;2023-05-10T13:48:08;13.83;67.09
71039;SHT30;58692;43.212;27.908;2023-05-10T13:50:51;14.02;67.33
71039;SHT30;58692;43.212;27.908;2023-05-10T13:53:18;13.99;67.12
71039;SHT30;58692;43.212;27.908;2023-05-10T13:58:56;13.83;67.76
71039;SHT30;58692;43.212;27.908;2023-05-10T14:01:26;13.89;67.52
71039;SHT30;58692;43.212;27.908;2023-05-10T14:04:05;13.99;66.85
71039;SHT30;58692;43.212;27.908;2023-05-10T14:06:34;13.96;65.76
71039;SHT30;58692;43.212;27.908;2023-05-10T14:09:00;13.85;65.93
71039;SHT30;58692;43.212;27.908;2023-05-10T14:11:26;13.89;66.13
71039;SHT30;58692;43.212;27.908;2023-05-10T14:13:52;14.03;66.41
71039;SHT30;58692;43.212;27.908;2023-05-10T14:16:18;14.00;65.59
71039;SHT30;58692;43.212;27.908;2023-05-10T14:18:44;13.95;65.17
71039;SHT30;58692;43.212;27.908;2023-05-10T14:21:10;13.66;65.67
71039;SHT30;58692;43.212;27.908;2023-05-10T14:23:35;13.51;66.87
71039;SHT30;58692;43.212;27.908;2023-05-10T14:26:01;13.66;65.62
71039;SHT30;58692;43.212;27.908;2023-05-10T14:28:28;13.44;65.75
71039;SHT30;58692;43.212;27.908;2023-05-10T14:30:54;13.58;65.37
71039;SHT30;58692;43.212;27.908;2023-05-10T14:33:20;13.62;66.03
71039;SHT30;58692;43.212;27.908;2023-05-10T14:35:46;13.67;66.08
71039;SHT30;58692;43.212;27.908;2023-05-10T14:38:13;13.72;66.68
71039;SHT30;58692;43.212;27.908;2023-05-10T14:40:38;13.52;66.92
71039;SHT30;58692;43.212;27.908;2023-05-10T14:43:04;13.66;66.45
71039;SHT30;58692;43.212;27.908;2023-05-10T14:45:29;13.69;66.72
71039;SHT30;58692;43.212;27.908;2023-05-10T14:47:55;13.49;67.40
71039;SHT30;58692;43.212;27.908;2023-05-10T14:50:21;13.58;67.28
71039;SHT30;58692;43.212;27.908;2023-05-10T14:55:58;13.52;65.87
71039;SHT30;58692;43.212;27.908;2023-05-10T14:58:26;13.26;66.90
71039;SHT30;58692;43.212;27.908;2023-05-10T15:00:54;13.29;68.69
71039;SHT30;58692;43.212;27.908;2023-05-10T15:03:20;13.45;69.00
71039;SHT30;58692;43.212;27.908;2023-05-10T15:05:46;13.45;69.07
71039;SHT30;58692;43.212;27.908;2023-05-10T15:08:12;13.38;68.76
71039;SHT30;58692;43.212;27.908;2023-05-10T15:10:39;13.56;68.87
71039;SHT30;58692;43.212;27.908;2023-05-10T15:13:04;13.41;68.63
71039;SHT30;58692;43.212;27.908;2023-05-10T15:15:30;13.21;69.39
71039;SHT30;58692;43.212;27.908;2023-05-10T15:17:56;13.34;69.38
71039;SHT30;58692;43.212;27.908;2023-05-10T15:20:22;13.41;68.71
71039;SHT30;58692;43.212;27.908;2023-05-10T15:22:47;13.52;68.03
71039;SHT30;58692;43.212;27.908;2023-05-10T15:25:13;13.49;67.55
71039;SHT30;58692;43.212;27.908;2023-05-10T15:27:41;13.49;67.75
71039;SHT30;58692;43.212;27.908;2023-05-10T15:30:09;13.49;68.42
71039;SHT30;58692;43.212;27.908;2023-05-10T15:32:34;13.34;68.74
71039;SHT30;58692;43.212;27.908;2023-05-10T15:35:00;13.39;68.33
71039;SHT30;58692;43.212;27.908;2023-05-10T15:37:26;13.29;69.26
71039;SHT30;58692;43.212;27.908;2023-05-10T15:39:52;13.34;69.64
71039;SHT30;58692;43.212;27.908;2023-05-10T15:42:18;13.19;70.03
71039;SHT30;58692;43.212;27.908;2023-05-10T15:44:43;13.16;69.55
71039;SHT30;58692;43.212;27.908;2023-05-10T15:47:09;13.26;69.03
71039;SHT30;58692;43.212;27.908;2023-05-10T15:49:35;13.22;69.18
71039;SHT30;58692;43.212;27.908;2023-05-10T15:52:01;13.15;69.72
71039;SHT30;58692;43.212;27.908;2023-05-10T15:54:26;13.22;69.67
71039;SHT30;58692;43.212;27.908;2023-05-10T15:56:52;13.44;69.18
71039;SHT30;58692;43.212;27.908;2023-05-10T15:59:19;13.39;68.99
71039;SHT30;58692;43.212;27.908;2023-05-10T16:01:45;13.21;69.14
71039;SHT30;58692;43.212;27.908;2023-05-10T16:04:12;13.11;69.62
71039;SHT30;58692;43.212;27.908;2023-05-10T16:06:55;13.14;69.68
71039;SHT30;58692;43.212;27.908;2023-05-10T16:09:21;13.04;70.10
71039;SHT30;58692;43.212;27.908;2023-05-10T16:11:50;13.08;70.52